الصفحة الرئيسية
METAR-TAF:

METAR-TAF

مطار :

مطار ميتشيل رومان الدولي

كورور, Babeldaob, بالاو

دائرة عرض: 07-22N, خط طول: 134-32E, ارتفاع: 54 متر

مراقبة الطقس الحالي

تاريخ ووقت الإصدار 57 دقيقة قبل الساعة 08:50UTC
ريح 6 عقدة من الشمال/الشمال الشرقي تتزايد حتى 11 عقدة
درجة الحرارة 30°درجة مئوية
الرطوبة 75%
ضغط 1007 hPa
الرؤية: 20.9 كم
غيوم قليلة على ارتفاع 1000 قدم
غيوم متفرقة على ارتفاع 1700 قدم
غيوم مفككة على ارتفاع 13000 قدم
غيوم مفككة على ارتفاع 30000 قدم

METAR: PTRO 200850Z 03006G11KT 13SM FEW010 SCT017 BKN130 BKN300 30/25 A2974 RMK HZ ALQDS CB DSNT SW

زمن: 18:47 (09:47 UTC)

توقعات

تاريخ ووقت الإصدار 4ساعات و 27 دقيقة قبل الساعة 05:20UTC
التوقعات صالحة من20 الساعة 06 UTC إلى 21 الساعة 06 UTC
ريح 10 عقدة من الشمال الشرقي تتزايد حتى 15 عقدة
الرؤية: 10 كم
غيوم قليلة على ارتفاع 1000 قدم
غيوم متفرقة على ارتفاع 1600 قدم
غيوم متفرقة على ارتفاع 12000 قدم
زخات في الجوار,

TAF: PTRO 200520Z 2006/2106 04010G15KT P6SM VCSH FEW010 SCT016 SCT120

أرصاد الطقس والتوقعات من أكثر من 4000 مطار (تقارير الطقس للمطار METAR والتنبؤ بالطقس بالمطارTAF).

المحطات المتاحة هي النقط الصفراء والحمراء على الخريطة.

حرك المؤشر فوق النقطة لمعرفة اسم المحطة.

ثم انقر لمعرفة أرصاد وتوقعات الطقس.

لتغيير الخارطة: اضغط على الأزرار الخضراء مع رمز الصليب الأسود للتكبير. على الزر الأخضر مع شرطة للتصغير، أو على الأسهم الخضراء للخرائط المجاورة.


METAR-TAF: